sensor_id;sensor_type;location;lat;lon;timestamp;temperature;humidity
22984;DHT22;11658;48.908;9.140;2023-02-21T04:00:40;3.70;99.90
22984;DHT22;11658;48.908;9.140;2023-02-21T04:03:06;5.90;99.90
22984;DHT22;11658;48.908;9.140;2023-02-21T04:05:31;3.60;99.90
22984;DHT22;11658;48.908;9.140;2023-02-21T04:07:57;3.60;99.90
22984;DHT22;11658;48.908;9.140;2023-02-21T04:10:23;3.60;99.90
22984;DHT22;11658;48.908;9.140;2023-02-21T04:12:48;3.60;99.90
22984;DHT22;11658;48.908;9.140;2023-02-21T04:15:14;3.60;99.90
22984;DHT22;11658;48.908;9.140;2023-02-21T04:17:39;3.60;99.90
22984;DHT22;11658;48.908;9.140;2023-02-21T04:20:05;3.50;99.90
22984;DHT22;11658;48.908;9.140;2023-02-21T04:22:31;3.50;99.90
22984;DHT22;11658;48.908;9.140;2023-02-21T04:24:56;3.50;99.90
22984;DHT22;11658;48.908;9.140;2023-02-21T04:27:22;3.40;99.90
22984;DHT22;11658;48.908;9.140;2023-02-21T04:29:48;3.50;99.90
22984;DHT22;11658;48.908;9.140;2023-02-21T04:32:13;3.40;99.90
22984;DHT22;11658;48.908;9.140;2023-02-21T04:34:39;3.40;99.90
22984;DHT22;11658;48.908;9.140;2023-02-21T04:37:04;3.30;99.90
22984;DHT22;11658;48.908;9.140;2023-02-21T04:39:30;3.30;99.90
22984;DHT22;11658;48.908;9.140;2023-02-21T04:41:56;3.40;99.90
22984;DHT22;11658;48.908;9.140;2023-02-21T04:44:21;3.40;99.90
22984;DHT22;11658;48.908;9.140;2023-02-21T04:46:47;3.40;99.90
22984;DHT22;11658;48.908;9.140;2023-02-21T04:49:13;3.40;99.90
22984;DHT22;11658;48.908;9.140;2023-02-21T04:51:38;3.50;99.90
22984;DHT22;11658;48.908;9.140;2023-02-21T04:54:04;3.50;99.90
22984;DHT22;11658;48.908;9.140;2023-02-21T04:56:32;3.60;99.90
22984;DHT22;11658;48.908;9.140;2023-02-21T04:58:57;3.80;99.90
22984;DHT22;11658;48.908;9.140;2023-02-21T05:01:27;3.80;99.90
22984;DHT22;11658;48.908;9.140;2023-02-21T05:03:52;3.80;99.90
22984;DHT22;11658;48.908;9.140;2023-02-21T05:06:19;3.90;99.90
22984;DHT22;11658;48.908;9.140;2023-02-21T05:08:45;3.90;99.90
22984;DHT22;11658;48.908;9.140;2023-02-21T05:11:11;4.00;99.90
22984;DHT22;11658;48.908;9.140;2023-02-21T05:13:37;4.00;99.90
22984;DHT22;11658;48.908;9.140;2023-02-21T05:16:03;4.10;99.90
22984;DHT22;11658;48.908;9.140;2023-02-21T05:18:28;4.10;99.90
22984;DHT22;11658;48.908;9.140;2023-02-21T05:20:54;4.20;99.90
22984;DHT22;11658;48.908;9.140;2023-02-21T05:23:20;4.20;99.90
22984;DHT22;11658;48.908;9.140;2023-02-21T05:25:59;4.20;99.90
22984;DHT22;11658;48.908;9.140;2023-02-21T05:28:24;4.30;99.90
22984;DHT22;11658;48.908;9.140;2023-02-21T05:30:50;4.30;99.90
22984;DHT22;11658;48.908;9.140;2023-02-21T05:33:15;4.30;99.90
22984;DHT22;11658;48.908;9.140;2023-02-21T05:35:41;4.40;99.90
22984;DHT22;11658;48.908;9.140;2023-02-21T05:38:07;4.30;99.90
22984;DHT22;11658;48.908;9.140;2023-02-21T05:40:32;4.20;99.90
22984;DHT22;11658;48.908;9.140;2023-02-21T05:42:58;4.10;99.90
22984;DHT22;11658;48.908;9.140;2023-02-21T05:45:23;4.20;99.90
22984;DHT22;11658;48.908;9.140;2023-02-21T05:47:49;4.20;99.90
22984;DHT22;11658;48.908;9.140;2023-02-21T05:50:14;4.10;99.90
22984;DHT22;11658;48.908;9.140;2023-02-21T05:52:40;4.10;99.90
22984;DHT22;11658;48.908;9.140;2023-02-21T05:55:06;4.10;99.90
22984;DHT22;11658;48.908;9.140;2023-02-21T05:57:37;4.10;99.90
22984;DHT22;11658;48.908;9.140;2023-02-21T06:00:03;4.00;99.90
22984;DHT22;11658;48.908;9.140;2023-02-21T06:02:29;4.00;99.90
22984;DHT22;11658;48.908;9.140;2023-02-21T06:04:54;4.00;99.90
22984;DHT22;11658;48.908;9.140;2023-02-21T06:07:20;4.00;99.90
22984;DHT22;11658;48.908;9.140;2023-02-21T06:09:45;4.00;99.90
22984;DHT22;11658;48.908;9.140;2023-02-21T06:12:11;3.90;99.90
22984;DHT22;11658;48.908;9.140;2023-02-21T06:14:37;3.90;99.90
22984;DHT22;11658;48.908;9.140;2023-02-21T06:17:02;3.90;99.90
22984;DHT22;11658;48.908;9.140;2023-02-21T06:19:28;3.90;99.90
22984;DHT22;11658;48.908;9.140;2023-02-21T06:21:53;3.80;99.90
22984;DHT22;11658;48.908;9.140;2023-02-21T06:24:19;3.80;99.90
22984;DHT22;11658;48.908;9.140;2023-02-21T06:26:44;3.70;99.90
22984;DHT22;11658;48.908;9.140;2023-02-21T06:29:11;3.60;99.90
22984;DHT22;11658;48.908;9.140;2023-02-21T06:31:36;3.40;99.90
22984;DHT22;11658;48.908;9.140;2023-02-21T06:34:03;3.10;99.90
22984;DHT22;11658;48.908;9.140;2023-02-21T06:36:29;2.90;99.90
22984;DHT22;11658;48.908;9.140;2023-02-21T06:38:56;2.90;99.90
22984;DHT22;11658;48.908;9.140;2023-02-21T06:41:24;2.80;99.90
22984;DHT22;11658;48.908;9.140;2023-02-21T06:43:54;2.80;99.90
22984;DHT22;11658;48.908;9.140;2023-02-21T06:46:22;2.80;99.90
22984;DHT22;11658;48.908;9.140;2023-02-21T06:48:48;3.00;99.90
22984;DHT22;11658;48.908;9.140;2023-02-21T06:51:15;2.90;99.90
22984;DHT22;11658;48.908;9.140;2023-02-21T06:53:42;2.90;99.90
22984;DHT22;11658;48.908;9.140;2023-02-21T06:56:08;3.00;99.90
22984;DHT22;11658;48.908;9.140;2023-02-21T06:58:34;3.10;99.90
22984;DHT22;11658;48.908;9.140;2023-02-21T07:01:00;3.20;99.90
22984;DHT22;11658;48.908;9.140;2023-02-21T07:03:25;3.30;99.90
22984;DHT22;11658;48.908;9.140;2023-02-21T07:05:51;3.30;99.90
22984;DHT22;11658;48.908;9.140;2023-02-21T07:08:16;3.40;99.90
22984;DHT22;11658;48.908;9.140;2023-02-21T07:10:42;3.60;99.90
22984;DHT22;11658;48.908;9.140;2023-02-21T07:13:08;3.70;99.90
22984;DHT22;11658;48.908;9.140;2023-02-21T07:15:33;3.80;99.90
22984;DHT22;11658;48.908;9.140;2023-02-21T07:17:59;3.90;99.90
22984;DHT22;11658;48.908;9.140;2023-02-21T07:20:24;4.00;99.90
22984;DHT22;11658;48.908;9.140;2023-02-21T07:22:50;4.10;99.90
22984;DHT22;11658;48.908;9.140;2023-02-21T07:25:19;4.20;99.90
22984;DHT22;11658;48.908;9.140;2023-02-21T07:27:48;4.30;99.90
22984;DHT22;11658;48.908;9.140;2023-02-21T07:30:15;4.50;99.90
22984;DHT22;11658;48.908;9.140;2023-02-21T07:32:40;4.60;99.90
22984;DHT22;11658;48.908;9.140;2023-02-21T07:35:07;4.70;99.90
22984;DHT22;11658;48.908;9.140;2023-02-21T07:37:32;4.90;99.90
22984;DHT22;11658;48.908;9.140;2023-02-21T07:39:58;4.80;99.90
22984;DHT22;11658;48.908;9.140;2023-02-21T07:42:24;5.00;99.90
22984;DHT22;11658;48.908;9.140;2023-02-21T07:44:55;5.10;99.90
22984;DHT22;11658;48.908;9.140;2023-02-21T07:47:22;5.20;99.90
22984;DHT22;11658;48.908;9.140;2023-02-21T07:49:47;5.20;99.90
22984;DHT22;11658;48.908;9.140;2023-02-21T07:52:13;5.30;99.90
22984;DHT22;11658;48.908;9.140;2023-02-21T07:54:38;5.40;99.90
22984;DHT22;11658;48.908;9.140;2023-02-21T07:57:04;5.50;99.90
22984;DHT22;11658;48.908;9.140;2023-02-21T07:59:30;5.60;99.90
22984;DHT22;11658;48.908;9.140;2023-02-21T08:01:55;5.60;99.90
22984;DHT22;11658;48.908;9.140;2023-02-21T08:04:21;5.70;99.90
22984;DHT22;11658;48.908;9.140;2023-02-21T08:06:48;5.90;99.90
22984;DHT22;11658;48.908;9.140;2023-02-21T08:09:14;6.00;99.90
22984;DHT22;11658;48.908;9.140;2023-02-21T08:11:39;6.20;99.90
22984;DHT22;11658;48.908;9.140;2023-02-21T08:14:06;6.30;99.90
22984;DHT22;11658;48.908;9.140;2023-02-21T08:16:31;6.40;99.90
22984;DHT22;11658;48.908;9.140;2023-02-21T08:18:57;6.60;99.90
22984;DHT22;11658;48.908;9.140;2023-02-21T08:21:23;6.70;99.90
22984;DHT22;11658;48.908;9.140;2023-02-21T08:23:52;6.90;99.90
22984;DHT22;11658;48.908;9.140;2023-02-21T08:26:18;7.00;99.90
22984;DHT22;11658;48.908;9.140;2023-02-21T08:28:44;7.10;99.90
22984;DHT22;11658;48.908;9.140;2023-02-21T08:31:10;7.30;99.90
22984;DHT22;11658;48.908;9.140;2023-02-21T08:33:36;7.40;99.90
22984;DHT22;11658;48.908;9.140;2023-02-21T08:36:02;7.60;99.90
22984;DHT22;11658;48.908;9.140;2023-02-21T08:38:28;7.70;99.90
22984;DHT22;11658;48.908;9.140;2023-02-21T08:40:53;7.90;99.90
22984;DHT22;11658;48.908;9.140;2023-02-21T08:43:19;7.90;99.90
22984;DHT22;11658;48.908;9.140;2023-02-21T08:45:44;8.10;99.90
22984;DHT22;11658;48.908;9.140;2023-02-21T08:48:11;8.10;99.90
22984;DHT22;11658;48.908;9.140;2023-02-21T08:50:36;8.10;99.90
22984;DHT22;11658;48.908;9.140;2023-02-21T08:53:02;8.20;99.90
22984;DHT22;11658;48.908;9.140;2023-02-21T08:55:28;8.30;99.90
22984;DHT22;11658;48.908;9.140;2023-02-21T08:57:54;8.50;99.90
22984;DHT22;11658;48.908;9.140;2023-02-21T09:00:22;8.60;99.90
22984;DHT22;11658;48.908;9.140;2023-02-21T09:02:49;8.70;99.90
22984;DHT22;11658;48.908;9.140;2023-02-21T09:05:18;8.80;99.90
22984;DHT22;11658;48.908;9.140;2023-02-21T09:07:47;8.90;99.90
22984;DHT22;11658;48.908;9.140;2023-02-21T09:10:13;9.00;99.90
22984;DHT22;11658;48.908;9.140;2023-02-21T09:12:39;9.10;99.90
22984;DHT22;11658;48.908;9.140;2023-02-21T09:15:06;9.10;99.90
22984;DHT22;11658;48.908;9.140;2023-02-21T09:17:31;9.30;99.90
22984;DHT22;11658;48.908;9.140;2023-02-21T09:20:01;9.50;99.90
22984;DHT22;11658;48.908;9.140;2023-02-21T09:22:29;9.60;99.90
22984;DHT22;11658;48.908;9.140;2023-02-21T09:24:56;9.70;99.90
22984;DHT22;11658;48.908;9.140;2023-02-21T09:27:22;9.90;99.90
22984;DHT22;11658;48.908;9.140;2023-02-21T09:30:20;10.00;99.90
22984;DHT22;11658;48.908;9.140;2023-02-21T09:32:48;10.40;99.90
22984;DHT22;11658;48.908;9.140;2023-02-21T09:35:14;10.60;99.90
22984;DHT22;11658;48.908;9.140;2023-02-21T09:37:41;10.70;99.90
22984;DHT22;11658;48.908;9.140;2023-02-21T09:42:59;10.80;99.90
22984;DHT22;11658;48.908;9.140;2023-02-21T09:45:30;10.80;99.90
22984;DHT22;11658;48.908;9.140;2023-02-21T09:48:01;10.90;99.90
22984;DHT22;11658;48.908;9.140;2023-02-21T09:50:32;11.10;99.90
22984;DHT22;11658;48.908;9.140;2023-02-21T09:52:59;11.10;99.90
22984;DHT22;11658;48.908;9.140;2023-02-21T09:55:30;11.20;99.90
22984;DHT22;11658;48.908;9.140;2023-02-21T09:57:57;11.20;99.90
22984;DHT22;11658;48.908;9.140;2023-02-21T10:00:30;11.10;99.90
22984;DHT22;11658;48.908;9.140;2023-02-21T10:05:55;11.30;99.90
22984;DHT22;11658;48.908;9.140;2023-02-21T10:14:01;11.40;99.90
22984;DHT22;11658;48.908;9.140;2023-02-21T10:16:44;11.30;99.90
22984;DHT22;11658;48.908;9.140;2023-02-21T10:19:17;11.30;99.90
22984;DHT22;11658;48.908;9.140;2023-02-21T10:21:48;11.40;99.90
22984;DHT22;11658;48.908;9.140;2023-02-21T10:24:18;11.50;99.90
22984;DHT22;11658;48.908;9.140;2023-02-21T10:27:07;11.70;99.90
22984;DHT22;11658;48.908;9.140;2023-02-21T10:32:11;11.80;99.90
22984;DHT22;11658;48.908;9.140;2023-02-21T10:34:38;11.90;99.90
22984;DHT22;11658;48.908;9.140;2023-02-21T10:37:41;11.80;99.90
22984;DHT22;11658;48.908;9.140;2023-02-21T10:48:34;12.30;99.90
22984;DHT22;11658;48.908;9.140;2023-02-21T10:51:16;12.40;99.90
22984;DHT22;11658;48.908;9.140;2023-02-21T10:53:44;12.40;99.90
22984;DHT22;11658;48.908;9.140;2023-02-21T10:58:44;12.60;99.90
22984;DHT22;11658;48.908;9.140;2023-02-21T11:03:52;12.80;99.90
22984;DHT22;11658;48.908;9.140;2023-02-21T11:06:25;12.90;99.90
22984;DHT22;11658;48.908;9.140;2023-02-21T11:08:52;12.80;99.90
22984;DHT22;11658;48.908;9.140;2023-02-21T11:11:35;12.80;99.90
22984;DHT22;11658;48.908;9.140;2023-02-21T11:16:41;13.20;99.90
22984;DHT22;11658;48.908;9.140;2023-02-21T11:19:11;13.40;99.90
22984;DHT22;11658;48.908;9.140;2023-02-21T11:21:37;13.40;99.90
22984;DHT22;11658;48.908;9.140;2023-02-21T11:24:06;13.50;99.90
22984;DHT22;11658;48.908;9.140;2023-02-21T11:26:46;13.60;99.90
22984;DHT22;11658;48.908;9.140;2023-02-21T11:29:20;13.60;99.90
22984;DHT22;11658;48.908;9.140;2023-02-21T11:31:48;13.60;99.90
22984;DHT22;11658;48.908;9.140;2023-02-21T11:34:16;13.50;99.90
22984;DHT22;11658;48.908;9.140;2023-02-21T11:36:45;13.50;99.90
22984;DHT22;11658;48.908;9.140;2023-02-21T11:39:24;13.40;99.90
22984;DHT22;11658;48.908;9.140;2023-02-21T11:41:58;13.30;99.90
22984;DHT22;11658;48.908;9.140;2023-02-21T11:44:31;13.40;99.90
22984;DHT22;11658;48.908;9.140;2023-02-21T11:49:44;13.50;99.90
22984;DHT22;11658;48.908;9.140;2023-02-21T11:52:14;13.60;99.90
22984;DHT22;11658;48.908;9.140;2023-02-21T11:54:43;13.60;99.90
22984;DHT22;11658;48.908;9.140;2023-02-21T12:29:38;14.20;99.90
22984;DHT22;11658;48.908;9.140;2023-02-21T12:48:42;14.40;99.90
22984;DHT22;11658;48.908;9.140;2023-02-21T12:51:21;14.50;99.90
22984;DHT22;11658;48.908;9.140;2023-02-21T12:53:53;14.60;99.90
22984;DHT22;11658;48.908;9.140;2023-02-21T12:56:23;14.70;99.90
22984;DHT22;11658;48.908;9.140;2023-02-21T12:59:04;14.90;99.90
22984;DHT22;11658;48.908;9.140;2023-02-21T13:01:37;14.80;99.90
22984;DHT22;11658;48.908;9.140;2023-02-21T13:04:19;14.90;99.90
22984;DHT22;11658;48.908;9.140;2023-02-21T13:06:57;15.00;99.90
22984;DHT22;11658;48.908;9.140;2023-02-21T13:09:34;15.20;99.90
22984;DHT22;11658;48.908;9.140;2023-02-21T13:15:00;15.30;99.90
22984;DHT22;11658;48.908;9.140;2023-02-21T13:17:27;15.30;99.90
22984;DHT22;11658;48.908;9.140;2023-02-21T13:20:03;15.40;99.90
22984;DHT22;11658;48.908;9.140;2023-02-21T13:28:23;15.40;99.90
22984;DHT22;11658;48.908;9.140;2023-02-21T13:30:57;15.40;99.90
22984;DHT22;11658;48.908;9.140;2023-02-21T13:33:37;15.40;99.90
22984;DHT22;11658;48.908;9.140;2023-02-21T13:38:41;15.40;99.90
22984;DHT22;11658;48.908;9.140;2023-02-21T13:41:09;15.50;99.90
22984;DHT22;11658;48.908;9.140;2023-02-21T13:43:43;15.50;99.90
22984;DHT22;11658;48.908;9.140;2023-02-21T13:57:42;15.40;99.90
22984;DHT22;11658;48.908;9.140;2023-02-21T14:08:48;15.70;99.90
22984;DHT22;11658;48.908;9.140;2023-02-21T14:11:22;15.70;99.90
22984;DHT22;11658;48.908;9.140;2023-02-21T14:13:52;15.80;99.90
22984;DHT22;11658;48.908;9.140;2023-02-21T14:16:36;16.00;99.90
22984;DHT22;11658;48.908;9.140;2023-02-21T14:19:33;16.00;99.90
22984;DHT22;11658;48.908;9.140;2023-02-21T14:22:13;15.80;99.90
22984;DHT22;11658;48.908;9.140;2023-02-21T14:24:42;15.80;99.90
22984;DHT22;11658;48.908;9.140;2023-02-21T14:32:31;15.70;99.90
22984;DHT22;11658;48.908;9.140;2023-02-21T14:34:58;15.60;99.90
22984;DHT22;11658;48.908;9.140;2023-02-21T14:37:40;15.60;99.90
22984;DHT22;11658;48.908;9.140;2023-02-21T14:51:35;15.50;99.90
22984;DHT22;11658;48.908;9.140;2023-02-21T14:57:50;15.60;99.90
22984;DHT22;11658;48.908;9.140;2023-02-21T15:03:23;15.50;99.90
22984;DHT22;11658;48.908;9.140;2023-02-21T15:06:14;15.40;99.90
22984;DHT22;11658;48.908;9.140;2023-02-21T15:08:47;15.40;99.90
22984;DHT22;11658;48.908;9.140;2023-02-21T15:11:27;15.40;99.90
22984;DHT22;11658;48.908;9.140;2023-02-21T15:14:16;15.30;99.90
22984;DHT22;11658;48.908;9.140;2023-02-21T15:16:53;15.30;99.90
22984;DHT22;11658;48.908;9.140;2023-02-21T15:19:24;15.20;99.90
22984;DHT22;11658;48.908;9.140;2023-02-21T15:22:13;15.10;99.90
22984;DHT22;11658;48.908;9.140;2023-02-21T15:24:39;15.10;99.90
22984;DHT22;11658;48.908;9.140;2023-02-21T15:27:10;15.10;99.90
22984;DHT22;11658;48.908;9.140;2023-02-21T15:29:36;15.00;99.90
22984;DHT22;11658;48.908;9.140;2023-02-21T15:32:02;15.00;99.90
22984;DHT22;11658;48.908;9.140;2023-02-21T15:34:42;14.90;99.90
22984;DHT22;11658;48.908;9.140;2023-02-21T15:37:19;14.80;99.90
22984;DHT22;11658;48.908;9.140;2023-02-21T15:39:58;14.70;99.90
22984;DHT22;11658;48.908;9.140;2023-02-21T15:42:25;14.70;99.90
22984;DHT22;11658;48.908;9.140;2023-02-21T15:45:01;14.70;99.90
22984;DHT22;11658;48.908;9.140;2023-02-21T15:47:28;14.70;99.90
22984;DHT22;11658;48.908;9.140;2023-02-21T15:50:17;14.60;99.90
22984;DHT22;11658;48.908;9.140;2023-02-21T15:52:49;14.50;99.90
22984;DHT22;11658;48.908;9.140;2023-02-21T16:00:28;14.40;99.90
22984;DHT22;11658;48.908;9.140;2023-02-21T16:05:51;14.20;99.90
22984;DHT22;11658;48.908;9.140;2023-02-21T16:08:17;14.10;99.90
22984;DHT22;11658;48.908;9.140;2023-02-21T16:10:43;14.00;99.90
22984;DHT22;11658;48.908;9.140;2023-02-21T16:13:10;14.00;99.90
22984;DHT22;11658;48.908;9.140;2023-02-21T16:15:37;13.90;99.90
22984;DHT22;11658;48.908;9.140;2023-02-21T16:18:07;13.80;99.90
22984;DHT22;11658;48.908;9.140;2023-02-21T16:26:01;13.60;99.90
22984;DHT22;11658;48.908;9.140;2023-02-21T16:28:30;13.50;99.90
22984;DHT22;11658;48.908;9.140;2023-02-21T16:30:57;13.40;99.90
22984;DHT22;11658;48.908;9.140;2023-02-21T16:33:26;13.40;99.90
22984;DHT22;11658;48.908;9.140;2023-02-21T16:35:52;13.30;99.90
22984;DHT22;11658;48.908;9.140;2023-02-21T16:38:19;13.20;99.90
22984;DHT22;11658;48.908;9.140;2023-02-21T16:40:46;13.10;99.90
22984;DHT22;11658;48.908;9.140;2023-02-21T16:43:30;12.90;99.90
22984;DHT22;11658;48.908;9.140;2023-02-21T16:45:56;12.70;99.90
22984;DHT22;11658;48.908;9.140;2023-02-21T16:48:27;12.50;99.90
22984;DHT22;11658;48.908;9.140;2023-02-21T16:51:02;12.40;99.90
22984;DHT22;11658;48.908;9.140;2023-02-21T16:53:28;12.20;99.90
22984;DHT22;11658;48.908;9.140;2023-02-21T16:55:54;12.10;99.90
22984;DHT22;11658;48.908;9.140;2023-02-21T17:00:59;11.80;99.90
22984;DHT22;11658;48.908;9.140;2023-02-21T17:03:25;11.70;99.90
22984;DHT22;11658;48.908;9.140;2023-02-21T17:05:53;11.60;99.90
22984;DHT22;11658;48.908;9.140;2023-02-21T17:08:20;11.40;99.90
22984;DHT22;11658;48.908;9.140;2023-02-21T17:10:46;11.30;99.90
22984;DHT22;11658;48.908;9.140;2023-02-21T17:13:11;11.20;99.90
22984;DHT22;11658;48.908;9.140;2023-02-21T17:15:37;11.10;99.90
22984;DHT22;11658;48.908;9.140;2023-02-21T17:18:03;11.00;99.90
22984;DHT22;11658;48.908;9.140;2023-02-21T17:20:29;10.90;99.90
22984;DHT22;11658;48.908;9.140;2023-02-21T17:22:55;10.90;99.90
22984;DHT22;11658;48.908;9.140;2023-02-21T17:25:23;10.70;99.90
22984;DHT22;11658;48.908;9.140;2023-02-21T17:27:49;10.70;99.90
22984;DHT22;11658;48.908;9.140;2023-02-21T17:30:18;10.60;99.90
22984;DHT22;11658;48.908;9.140;2023-02-21T17:32:44;10.50;99.90
22984;DHT22;11658;48.908;9.140;2023-02-21T17:35:12;10.50;99.90
22984;DHT22;11658;48.908;9.140;2023-02-21T17:37:40;10.40;99.90
22984;DHT22;11658;48.908;9.140;2023-02-21T17:40:06;10.40;99.90
22984;DHT22;11658;48.908;9.140;2023-02-21T17:42:32;10.30;99.90
22984;DHT22;11658;48.908;9.140;2023-02-21T17:44:57;10.20;99.90
22984;DHT22;11658;48.908;9.140;2023-02-21T17:47:26;10.20;99.90
22984;DHT22;11658;48.908;9.140;2023-02-21T17:49:52;10.10;99.90
22984;DHT22;11658;48.908;9.140;2023-02-21T17:52:19;10.00;99.90
22984;DHT22;11658;48.908;9.140;2023-02-21T17:54:45;10.00;99.90
22984;DHT22;11658;48.908;9.140;2023-02-21T17:57:10;9.90;99.90
22984;DHT22;11658;48.908;9.140;2023-02-21T17:59:36;9.80;99.90
22984;DHT22;11658;48.908;9.140;2023-02-21T18:02:02;9.80;99.90
22984;DHT22;11658;48.908;9.140;2023-02-21T18:04:28;9.70;99.90
22984;DHT22;11658;48.908;9.140;2023-02-21T18:06:54;9.70;99.90
22984;DHT22;11658;48.908;9.140;2023-02-21T18:09:20;9.60;99.90
22984;DHT22;11658;48.908;9.140;2023-02-21T18:11:49;9.90;99.90
22984;DHT22;11658;48.908;9.140;2023-02-21T18:14:16;10.10;99.90
22984;DHT22;11658;48.908;9.140;2023-02-21T18:16:41;10.20;99.90
22984;DHT22;11658;48.908;9.140;2023-02-21T18:19:07;10.50;99.90
22984;DHT22;11658;48.908;9.140;2023-02-21T18:21:33;10.60;99.90
22984;DHT22;11658;48.908;9.140;2023-02-21T18:23:59;10.80;99.90
22984;DHT22;11658;48.908;9.140;2023-02-21T18:26:24;10.80;99.90
22984;DHT22;11658;48.908;9.140;2023-02-21T18:28:50;10.80;99.90
22984;DHT22;11658;48.908;9.140;2023-02-21T18:31:17;10.80;99.90
22984;DHT22;11658;48.908;9.140;2023-02-21T18:33:43;11.00;99.90
22984;DHT22;11658;48.908;9.140;2023-02-21T18:36:09;10.80;99.90
22984;DHT22;11658;48.908;9.140;2023-02-21T18:38:34;10.60;99.90
22984;DHT22;11658;48.908;9.140;2023-02-21T18:41:02;10.30;99.90
22984;DHT22;11658;48.908;9.140;2023-02-21T18:43:29;10.10;99.90
22984;DHT22;11658;48.908;9.140;2023-02-21T18:45:56;10.00;99.90
22984;DHT22;11658;48.908;9.140;2023-02-21T18:48:22;9.80;99.90
22984;DHT22;11658;48.908;9.140;2023-02-21T18:50:48;9.70;99.90
22984;DHT22;11658;48.908;9.140;2023-02-21T18:53:15;9.80;99.90
22984;DHT22;11658;48.908;9.140;2023-02-21T18:55:41;9.80;99.90
22984;DHT22;11658;48.908;9.140;2023-02-21T18:58:07;9.80;99.90
22984;DHT22;11658;48.908;9.140;2023-02-21T19:00:33;9.70;99.90
22984;DHT22;11658;48.908;9.140;2023-02-21T19:03:04;9.60;99.90
22984;DHT22;11658;48.908;9.140;2023-02-21T19:05:31;9.60;99.90
22984;DHT22;11658;48.908;9.140;2023-02-21T19:07:57;9.50;99.90
22984;DHT22;11658;48.908;9.140;2023-02-21T19:10:26;9.30;99.90
22984;DHT22;11658;48.908;9.140;2023-02-21T19:12:52;9.20;99.90
22984;DHT22;11658;48.908;9.140;2023-02-21T19:15:18;9.10;99.90
22984;DHT22;11658;48.908;9.140;2023-02-21T19:17:44;8.90;99.90
22984;DHT22;11658;48.908;9.140;2023-02-21T19:20:12;8.80;99.90
22984;DHT22;11658;48.908;9.140;2023-02-21T19:22:38;8.70;99.90
22984;DHT22;11658;48.908;9.140;2023-02-21T19:25:04;8.70;99.90
22984;DHT22;11658;48.908;9.140;2023-02-21T19:27:30;8.60;99.90
22984;DHT22;11658;48.908;9.140;2023-02-21T19:29:56;8.50;99.90
22984;DHT22;11658;48.908;9.140;2023-02-21T19:32:23;8.50;99.90
22984;DHT22;11658;48.908;9.140;2023-02-21T19:34:49;8.40;99.90
22984;DHT22;11658;48.908;9.140;2023-02-21T19:37:15;8.30;99.90
22984;DHT22;11658;48.908;9.140;2023-02-21T19:39:41;8.20;99.90
22984;DHT22;11658;48.908;9.140;2023-02-21T19:42:07;8.20;99.90
22984;DHT22;11658;48.908;9.140;2023-02-21T19:44:33;8.10;99.90
22984;DHT22;11658;48.908;9.140;2023-02-21T19:47:00;8.00;99.90
22984;DHT22;11658;48.908;9.140;2023-02-21T19:49:25;8.00;99.90
22984;DHT22;11658;48.908;9.140;2023-02-21T19:51:53;7.90;99.90
22984;DHT22;11658;48.908;9.140;2023-02-21T19:54:22;7.90;99.90
22984;DHT22;11658;48.908;9.140;2023-02-21T19:56:49;7.80;99.90
22984;DHT22;11658;48.908;9.140;2023-02-21T19:59:16;7.80;99.90
22984;DHT22;11658;48.908;9.140;2023-02-21T20:01:42;7.80;99.90
22984;DHT22;11658;48.908;9.140;2023-02-21T20:04:08;7.80;99.90
22984;DHT22;11658;48.908;9.140;2023-02-21T20:06:35;7.80;99.90
22984;DHT22;11658;48.908;9.140;2023-02-21T20:09:04;7.80;99.90
22984;DHT22;11658;48.908;9.140;2023-02-21T20:11:30;7.80;99.90
22984;DHT22;11658;48.908;9.140;2023-02-21T20:13:55;7.70;99.90
22984;DHT22;11658;48.908;9.140;2023-02-21T20:16:21;7.70;99.90
22984;DHT22;11658;48.908;9.140;2023-02-21T20:18:49;7.60;99.90
22984;DHT22;11658;48.908;9.140;2023-02-21T20:21:25;7.60;99.90
22984;DHT22;11658;48.908;9.140;2023-02-21T20:23:52;7.50;99.90
22984;DHT22;11658;48.908;9.140;2023-02-21T20:26:18;7.50;99.90
22984;DHT22;11658;48.908;9.140;2023-02-21T20:28:48;7.40;99.90
22984;DHT22;11658;48.908;9.140;2023-02-21T20:31:14;7.50;99.90
22984;DHT22;11658;48.908;9.140;2023-02-21T20:33:40;7.40;99.90
22984;DHT22;11658;48.908;9.140;2023-02-21T20:36:07;7.30;99.90
22984;DHT22;11658;48.908;9.140;2023-02-21T20:38:32;7.30;99.90
22984;DHT22;11658;48.908;9.140;2023-02-21T20:41:00;7.30;99.90
22984;DHT22;11658;48.908;9.140;2023-02-21T20:43:25;7.20;99.90
22984;DHT22;11658;48.908;9.140;2023-02-21T20:45:51;7.20;99.90
22984;DHT22;11658;48.908;9.140;2023-02-21T20:48:17;7.10;99.90
22984;DHT22;11658;48.908;9.140;2023-02-21T20:50:43;7.00;99.90
22984;DHT22;11658;48.908;9.140;2023-02-21T20:53:11;7.00;99.90
22984;DHT22;11658;48.908;9.140;2023-02-21T20:55:36;6.90;99.90
22984;DHT22;11658;48.908;9.140;2023-02-21T20:58:05;6.90;99.90
22984;DHT22;11658;48.908;9.140;2023-02-21T21:00:32;6.80;99.90
22984;DHT22;11658;48.908;9.140;2023-02-21T21:03:01;6.80;99.90
22984;DHT22;11658;48.908;9.140;2023-02-21T21:05:28;6.70;99.90
22984;DHT22;11658;48.908;9.140;2023-02-21T21:07:53;6.60;99.90
22984;DHT22;11658;48.908;9.140;2023-02-21T21:10:20;6.60;99.90
22984;DHT22;11658;48.908;9.140;2023-02-21T21:12:46;6.60;99.90
22984;DHT22;11658;48.908;9.140;2023-02-21T21:15:14;6.70;99.90
22984;DHT22;11658;48.908;9.140;2023-02-21T21:17:40;6.60;99.90
22984;DHT22;11658;48.908;9.140;2023-02-21T21:20:07;6.60;99.90
22984;DHT22;11658;48.908;9.140;2023-02-21T21:22:34;6.50;99.90
22984;DHT22;11658;48.908;9.140;2023-02-21T21:25:00;6.50;99.90
22984;DHT22;11658;48.908;9.140;2023-02-21T21:27:26;6.50;99.90
22984;DHT22;11658;48.908;9.140;2023-02-21T21:29:52;6.40;99.90
22984;DHT22;11658;48.908;9.140;2023-02-21T21:32:20;6.40;99.90
22984;DHT22;11658;48.908;9.140;2023-02-21T21:34:51;6.30;99.90
22984;DHT22;11658;48.908;9.140;2023-02-21T21:37:19;6.30;99.90
22984;DHT22;11658;48.908;9.140;2023-02-21T21:39:47;6.30;99.90
22984;DHT22;11658;48.908;9.140;2023-02-21T21:42:24;6.20;99.90
22984;DHT22;11658;48.908;9.140;2023-02-21T21:44:52;6.20;99.90
22984;DHT22;11658;48.908;9.140;2023-02-21T21:47:25;6.10;99.90
22984;DHT22;11658;48.908;9.140;2023-02-21T21:49:51;6.20;99.90
22984;DHT22;11658;48.908;9.140;2023-02-21T21:52:17;6.10;99.90
22984;DHT22;11658;48.908;9.140;2023-02-21T21:54:45;6.00;99.90
22984;DHT22;11658;48.908;9.140;2023-02-21T21:57:12;5.90;99.90
22984;DHT22;11658;48.908;9.140;2023-02-21T21:59:38;5.80;99.90
22984;DHT22;11658;48.908;9.140;2023-02-21T22:02:07;5.80;99.90
22984;DHT22;11658;48.908;9.140;2023-02-21T22:04:35;5.80;99.90
22984;DHT22;11658;48.908;9.140;2023-02-21T22:07:00;5.80;99.90
22984;DHT22;11658;48.908;9.140;2023-02-21T22:09:26;5.80;99.90
22984;DHT22;11658;48.908;9.140;2023-02-21T22:11:52;5.80;99.90
22984;DHT22;11658;48.908;9.140;2023-02-21T22:14:19;5.90;99.90
22984;DHT22;11658;48.908;9.140;2023-02-21T22:16:47;5.80;99.90
22984;DHT22;11658;48.908;9.140;2023-02-21T22:19:14;5.90;99.90